Aérodrome :
LOGIN :

S'inscrire | Disclaimer

   EN    FR    IT 

 










Légende :    VFR   VFR Marginal   IFR   IFR Intensif   IFR Très Intensif
Visi : 
Plafond : 
>= 8 km
>= 3000ft
5 à 8 km
1000 à 3000 ft
1500m à 5 km
500 à 1000 ft
800 à 1500m
200 à 500 ft
< 800m
< 200 ft
Symboles :   Orages  Brouillard  Fortes neiges  Fortes précipitations  Vent > 20 kt
SIGMETs :   Divers  Orages  Givrage  Turbulence  Onde Orograph.  Cendres Volcan.






- Altitude de l'aérodrome : 13 ft
- Code IATA : CAG


LIEE - Cagliari Elmas

DERNIER METAR :
  • 181750Z 19007KT CAVOK 28/18 Q1013

METARs EXPIRÉS :
  • 181720Z 18009KT CAVOK 28/17 Q1013
  • 181650Z 18011KT CAVOK 27/18 Q1014
  • 181620Z 19011KT CAVOK 28/18 Q1014
  • 181550Z 17011KT CAVOK 29/18 Q1014
  • 181520Z 17011KT CAVOK 29/18 Q1014
  • 181450Z 16012KT CAVOK 29/18 Q1014
  • 181420Z 17012KT CAVOK 30/18 Q1014
  • 181350Z 17010KT CAVOK 30/18 Q1015

TAF TAF LIEE
Valide du 18 à 18h jusqu'au 19 à 18h UTC


181700Z 1818/1918 16010KT 9999 FEW040
BECMG 1818/1820 VRB05KT
BECMG 1908/1910 16010KT



MET'MAP, la Météo Aéronautique d'un coup d'oeil ! - Copyright ORBIFLY Décembre 2007 - Disclaimer

ORBIFLY MET'MAP TEAM :

Programmation & Développement : Alexandra Zaïnal
Sur une idée originale de : Baudouin d'Aumeries
Soutien technique & logistique : Manuel Goepfert
Assistance : Marc-Olivier Méhu




SOURCES & CREDITS :

   NOAA